createdAt,value
2023-05-10T00:00:12.384Z,141.00
2023-05-10T00:01:12.383Z,143.32
2023-05-10T00:02:12.438Z,141.40
2023-05-10T00:03:12.516Z,139.66
2023-05-10T00:04:12.530Z,140.06
2023-05-10T00:05:12.386Z,140.48
2023-05-10T00:06:12.367Z,141.07
2023-05-10T00:07:12.371Z,139.34
2023-05-10T00:08:12.394Z,139.28
2023-05-10T00:09:12.373Z,140.13
2023-05-10T00:10:12.363Z,142.16
2023-05-10T00:11:12.365Z,144.03
2023-05-10T00:12:12.338Z,138.26
2023-05-10T00:13:12.406Z,141.70
2023-05-10T00:14:12.336Z,139.84
2023-05-10T00:15:12.339Z,138.93
2023-05-10T00:16:12.411Z,141.06
2023-05-10T00:17:12.339Z,140.64
2023-05-10T00:18:12.337Z,140.02
2023-05-10T00:19:12.353Z,138.49
2023-05-10T00:20:12.336Z,138.41
2023-05-10T00:21:12.357Z,144.52
2023-05-10T00:22:12.336Z,140.38
2023-05-10T00:23:12.336Z,142.17
2023-05-10T00:24:12.333Z,140.59
2023-05-10T00:25:12.364Z,137.32
2023-05-10T00:26:12.325Z,139.18
2023-05-10T00:27:12.356Z,136.53
2023-05-10T00:28:12.326Z,141.49
2023-05-10T00:29:12.328Z,138.34
2023-05-10T00:30:12.346Z,139.68
2023-05-10T00:31:12.329Z,137.38
2023-05-10T00:32:12.422Z,140.92
2023-05-10T00:33:12.341Z,139.35
2023-05-10T00:34:12.351Z,142.67
2023-05-10T00:35:12.346Z,139.86
2023-05-10T00:36:12.372Z,139.70
2023-05-10T00:37:12.388Z,141.09
2023-05-10T00:38:12.345Z,140.83
2023-05-10T00:39:12.357Z,140.33
2023-05-10T00:40:12.348Z,142.20
2023-05-10T00:41:12.347Z,139.07
2023-05-10T00:42:12.336Z,140.69
2023-05-10T00:43:12.364Z,140.57
2023-05-10T00:44:12.357Z,139.28
2023-05-10T00:45:12.345Z,136.90
2023-05-10T00:46:12.433Z,142.07
2023-05-10T00:47:12.361Z,140.16
2023-05-10T00:48:12.367Z,142.19
2023-05-10T00:49:12.372Z,139.77
2023-05-10T00:50:12.374Z,135.75
2023-05-10T00:51:12.354Z,139.08
2023-05-10T00:52:12.361Z,137.69
2023-05-10T00:53:12.387Z,137.34
2023-05-10T00:54:12.364Z,140.47
2023-05-10T00:55:12.399Z,138.16
2023-05-10T00:56:12.371Z,140.66
2023-05-10T00:57:12.384Z,137.98
2023-05-10T00:58:12.422Z,140.42
2023-05-10T00:59:12.404Z,138.86
2023-05-10T01:00:12.451Z,138.52
2023-05-10T01:01:12.434Z,137.63
2023-05-10T01:02:12.459Z,138.05
2023-05-10T01:03:12.585Z,138.80
2023-05-10T01:04:12.430Z,141.87
2023-05-10T01:05:12.439Z,138.98
2023-05-10T01:06:12.454Z,136.16
2023-05-10T01:07:12.457Z,135.74
2023-05-10T01:08:12.437Z,135.57
2023-05-10T01:09:12.480Z,137.83
2023-05-10T01:10:13.070Z,135.50
2023-05-10T01:11:12.502Z,139.48
2023-05-10T01:12:12.501Z,137.96
2023-05-10T01:13:12.507Z,136.32
2023-05-10T01:14:12.500Z,136.38
2023-05-10T01:15:12.485Z,136.27
2023-05-10T01:16:12.613Z,137.26
2023-05-10T01:17:12.498Z,138.34
2023-05-10T01:18:12.518Z,135.11
2023-05-10T01:29:42.213Z,25.00
2023-05-10T01:30:42.020Z,25.00
2023-05-10T01:31:42.040Z,25.00
2023-05-10T01:32:42.094Z,25.00
2023-05-10T01:33:41.999Z,25.00
2023-05-10T01:34:41.988Z,25.25
2023-05-10T01:35:41.985Z,24.85
2023-05-10T01:36:41.985Z,25.56
2023-05-10T01:37:41.965Z,26.52
2023-05-10T01:38:42.236Z,25.82
2023-05-10T01:39:41.997Z,27.39
2023-05-10T01:40:41.962Z,25.02
2023-05-10T01:41:41.941Z,27.28
2023-05-10T01:42:41.946Z,28.08
2023-05-10T01:43:41.944Z,27.32
2023-05-10T01:44:41.960Z,27.59
2023-05-10T01:45:41.937Z,25.72
2023-05-10T01:46:41.958Z,25.63
2023-05-10T01:47:41.954Z,27.01
2023-05-10T01:48:41.882Z,29.19
2023-05-10T01:49:41.884Z,25.00
2023-05-10T01:50:41.877Z,26.89
2023-05-10T01:51:41.915Z,25.00
2023-05-10T01:52:41.882Z,25.47
2023-05-10T01:53:41.943Z,25.94
2023-05-10T01:54:41.918Z,27.18
2023-05-10T01:55:42.710Z,30.15
2023-05-10T01:56:41.992Z,29.52
2023-05-10T01:57:41.926Z,27.29
2023-05-10T01:58:41.989Z,26.06
2023-05-10T01:59:42.022Z,29.86
2023-05-10T02:00:41.976Z,26.00
2023-05-10T02:01:41.943Z,31.69
2023-05-10T02:02:42.019Z,26.29
2023-05-10T02:03:42.014Z,27.17
2023-05-10T02:04:41.984Z,29.07
2023-05-10T02:05:41.996Z,29.72
2023-05-10T02:06:41.999Z,29.30
2023-05-10T02:07:42.003Z,28.32
2023-05-10T02:08:42.047Z,28.80
2023-05-10T02:09:42.054Z,27.00
2023-05-10T02:10:42.040Z,27.11
2023-05-10T02:11:42.049Z,25.97
2023-05-10T02:12:42.073Z,27.91
2023-05-10T02:13:42.080Z,26.36
2023-05-10T02:14:42.086Z,28.91
2023-05-10T02:15:42.072Z,28.73
2023-05-10T02:16:42.092Z,30.60
2023-05-10T02:17:42.153Z,30.07
2023-05-10T02:18:42.133Z,27.26
2023-05-10T02:19:42.156Z,25.33
2023-05-10T02:20:42.118Z,28.45
2023-05-10T02:21:42.130Z,32.23
2023-05-10T02:22:42.163Z,33.37
2023-05-10T02:23:42.172Z,31.04
2023-05-10T02:24:42.246Z,30.08
2023-05-10T02:25:42.199Z,32.04
2023-05-10T02:26:42.231Z,27.73
2023-05-10T02:27:42.235Z,31.82
2023-05-10T02:28:42.273Z,32.57
2023-05-10T02:29:42.291Z,31.19
2023-05-10T02:30:42.290Z,29.30
2023-05-10T02:31:42.314Z,32.28
2023-05-10T02:32:42.328Z,30.98
2023-05-10T02:33:42.347Z,30.43
2023-05-10T02:34:42.380Z,31.43
2023-05-10T02:35:42.387Z,28.52
2023-05-10T02:36:42.402Z,29.83
2023-05-10T02:37:42.400Z,30.51
2023-05-10T02:38:42.433Z,31.90
2023-05-10T02:39:42.430Z,28.43
2023-05-10T02:40:42.462Z,31.52
2023-05-10T02:41:42.458Z,32.25
2023-05-10T02:42:42.509Z,30.01
2023-05-10T02:43:42.516Z,31.63
2023-05-10T02:44:42.538Z,32.33
2023-05-10T02:45:42.577Z,33.17
2023-05-10T02:46:42.545Z,31.51
2023-05-10T02:47:42.613Z,33.14
2023-05-10T02:48:42.583Z,32.91
2023-05-10T02:49:42.608Z,28.31
2023-05-10T02:50:42.619Z,31.16
2023-05-10T02:51:42.648Z,27.77
2023-05-10T02:52:42.660Z,29.35
2023-05-10T02:53:42.722Z,31.59
2023-05-10T02:54:42.703Z,30.79
2023-05-10T02:55:42.737Z,30.00
2023-05-10T02:56:42.739Z,32.40
2023-05-10T02:57:42.762Z,30.15
2023-05-10T02:58:42.811Z,31.38
2023-05-10T02:59:42.825Z,33.14
2023-05-10T03:00:42.833Z,32.03
2023-05-10T03:01:42.934Z,32.34
2023-05-10T03:02:42.988Z,31.24
2023-05-10T03:03:42.922Z,30.56
2023-05-10T03:04:42.979Z,33.74
2023-05-10T03:05:42.942Z,32.55
2023-05-10T03:06:42.962Z,29.31
2023-05-10T03:07:42.992Z,33.37
2023-05-10T03:08:43.021Z,32.03
2023-05-10T03:09:43.048Z,32.75
2023-05-10T03:10:43.052Z,29.43
2023-05-10T03:11:43.069Z,29.99
2023-05-10T03:12:43.167Z,31.83
2023-05-10T03:13:43.095Z,32.61
2023-05-10T03:14:43.122Z,28.16
2023-05-10T03:15:43.134Z,32.35
2023-05-10T03:16:44.899Z,33.28
2023-05-10T03:17:43.177Z,31.68
2023-05-10T03:18:43.209Z,34.16
2023-05-10T03:19:43.205Z,34.57
2023-05-10T03:20:43.207Z,31.95
2023-05-10T03:21:43.226Z,31.30
2023-05-10T03:22:43.249Z,30.72
2023-05-10T03:23:43.295Z,29.94
2023-05-10T03:24:43.287Z,32.15
2023-05-10T03:25:43.299Z,31.04
2023-05-10T03:26:43.310Z,32.08
2023-05-10T03:27:43.319Z,31.86
2023-05-10T03:28:43.357Z,31.99
2023-05-10T03:29:43.391Z,29.91
2023-05-10T03:30:43.398Z,30.17
2023-05-10T03:31:43.474Z,29.46
2023-05-10T03:32:43.503Z,30.99
2023-05-10T03:33:43.461Z,33.78
2023-05-10T03:34:43.489Z,31.29
2023-05-10T03:35:43.466Z,31.72
2023-05-10T03:36:43.522Z,30.05
2023-05-10T03:37:43.502Z,33.57
2023-05-10T03:38:43.525Z,32.18
2023-05-10T03:39:43.526Z,31.44
2023-05-10T03:40:43.536Z,32.00
2023-05-10T03:41:43.584Z,31.29
2023-05-10T03:42:43.598Z,31.20
2023-05-10T03:43:43.645Z,28.91
2023-05-10T03:44:43.652Z,30.99
2023-05-10T03:45:43.653Z,31.23
2023-05-10T03:46:43.710Z,33.31
2023-05-10T03:47:43.742Z,31.40
2023-05-10T03:48:43.748Z,33.06
2023-05-10T03:49:43.734Z,30.83
2023-05-10T03:50:43.739Z,29.44
2023-05-10T03:51:43.763Z,31.64
2023-05-10T03:52:43.801Z,29.99
2023-05-10T03:53:43.827Z,30.72
2023-05-10T03:54:43.844Z,33.12
2023-05-10T03:55:43.890Z,33.13
2023-05-10T03:56:43.878Z,31.40
2023-05-10T03:57:43.910Z,33.41
2023-05-10T03:58:43.960Z,30.84
2023-05-10T03:59:43.963Z,30.79
2023-05-10T04:00:43.990Z,32.62
2023-05-10T04:01:44.096Z,30.53
2023-05-10T04:02:44.746Z,28.45
2023-05-10T04:03:44.162Z,33.36
2023-05-10T04:04:44.058Z,30.64
2023-05-10T04:05:44.146Z,30.66
2023-05-10T04:06:44.170Z,35.53
2023-05-10T04:07:44.135Z,31.55
2023-05-10T04:08:44.146Z,31.81
2023-05-10T04:09:44.193Z,31.63
2023-05-10T04:10:44.213Z,31.84
2023-05-10T04:11:44.213Z,32.84
2023-05-10T04:12:44.289Z,32.29
2023-05-10T04:13:44.262Z,33.22
2023-05-10T04:14:44.284Z,32.68
2023-05-10T04:15:44.299Z,31.30
2023-05-10T04:16:44.390Z,32.53
2023-05-10T04:17:44.372Z,35.44
2023-05-10T04:18:44.377Z,30.63
2023-05-10T04:19:44.393Z,31.06
2023-05-10T04:20:44.425Z,31.95
2023-05-10T04:21:44.453Z,33.43
2023-05-10T04:22:44.462Z,33.32
2023-05-10T04:23:44.495Z,32.36
2023-05-10T04:24:44.523Z,31.62
2023-05-10T04:25:44.546Z,32.87
2023-05-10T04:26:44.564Z,30.68
2023-05-10T04:27:44.586Z,31.43
2023-05-10T04:28:44.607Z,31.08
2023-05-10T04:29:44.639Z,31.08
2023-05-10T04:30:44.700Z,33.33
2023-05-10T04:31:44.682Z,29.15
2023-05-10T04:32:44.727Z,32.84
2023-05-10T04:33:44.711Z,32.14
2023-05-10T04:34:44.739Z,33.03
2023-05-10T04:35:44.756Z,29.90
2023-05-10T04:36:44.807Z,32.88
2023-05-10T04:37:44.818Z,32.69
2023-05-10T04:38:44.844Z,32.96
2023-05-10T04:39:44.868Z,32.95
2023-05-10T04:40:44.873Z,33.42
2023-05-10T04:41:44.937Z,32.47
2023-05-10T04:42:44.961Z,31.58
2023-05-10T04:43:44.941Z,31.14
2023-05-10T04:44:44.992Z,36.72
2023-05-10T04:45:45.032Z,37.77
2023-05-10T04:46:45.083Z,30.45
2023-05-10T04:47:45.102Z,34.92
2023-05-10T04:48:45.109Z,31.42
2023-05-10T04:49:45.162Z,34.14
2023-05-10T04:50:45.103Z,32.38
2023-05-10T04:51:45.151Z,33.96
2023-05-10T04:52:45.161Z,31.70
2023-05-10T04:53:54.132Z,33.22
2023-05-10T04:54:46.180Z,33.52
2023-05-10T04:55:45.181Z,33.23
2023-05-10T04:56:45.176Z,33.89
2023-05-10T04:57:45.156Z,33.44
2023-05-10T04:58:45.232Z,35.70
2023-05-10T04:59:45.160Z,30.13
2023-05-10T05:00:45.145Z,32.96
2023-05-10T05:01:45.191Z,32.34
2023-05-10T05:02:45.199Z,34.35
2023-05-10T05:03:45.238Z,34.20
2023-05-10T05:04:45.138Z,35.16
2023-05-10T05:05:45.105Z,33.21
2023-05-10T05:06:45.154Z,31.85
2023-05-10T05:07:45.102Z,31.15
2023-05-10T05:08:45.075Z,32.71
2023-05-10T05:09:45.074Z,33.86
2023-05-10T05:10:45.086Z,31.20
2023-05-10T05:11:45.069Z,35.65
2023-05-10T05:12:45.067Z,34.08
2023-05-10T05:13:45.050Z,31.36
2023-05-10T05:14:45.063Z,31.67
2023-05-10T05:15:45.072Z,31.75
2023-05-10T05:16:45.208Z,34.09
2023-05-10T05:17:45.181Z,29.44
2023-05-10T05:18:45.146Z,32.18
2023-05-10T05:19:45.165Z,29.40
2023-05-10T05:20:45.185Z,32.88
2023-05-10T05:21:45.217Z,30.07
2023-05-10T05:22:45.255Z,29.46
2023-05-10T05:23:45.323Z,27.82
2023-05-10T05:24:45.304Z,31.35
2023-05-10T05:25:45.301Z,30.79
2023-05-10T05:26:45.336Z,27.91
2023-05-10T05:27:45.351Z,25.76
2023-05-10T05:28:45.357Z,29.94
2023-05-10T05:29:45.423Z,27.42
2023-05-10T05:30:45.418Z,26.00
2023-05-10T05:31:45.462Z,28.46
2023-05-10T05:32:45.492Z,26.94
2023-05-10T05:33:45.478Z,31.17
2023-05-10T05:34:45.496Z,34.93
2023-05-10T05:35:45.517Z,37.66
2023-05-10T05:36:45.585Z,37.06
2023-05-10T05:37:45.561Z,43.81
2023-05-10T05:38:45.613Z,49.81
2023-05-10T05:39:45.640Z,63.23
2023-05-10T05:40:45.636Z,62.75
2023-05-10T05:41:45.646Z,69.79
2023-05-10T05:42:45.741Z,80.40
2023-05-10T05:43:45.720Z,83.44
2023-05-10T05:44:45.733Z,84.08
2023-05-10T05:45:45.742Z,86.37
2023-05-10T05:46:45.715Z,83.72
2023-05-10T05:47:45.788Z,102.14
2023-05-10T05:48:45.744Z,112.65
2023-05-10T05:49:45.761Z,91.81
2023-05-10T05:50:45.739Z,83.69
2023-05-10T05:51:45.905Z,79.16
2023-05-10T05:52:45.752Z,76.37
2023-05-10T05:53:45.775Z,77.38
2023-05-10T05:54:45.788Z,76.16
2023-05-10T05:55:45.784Z,79.67
2023-05-10T05:56:45.794Z,76.75
2023-05-10T05:57:45.811Z,76.68
2023-05-10T05:58:45.827Z,82.73
2023-05-10T05:59:45.851Z,80.76
2023-05-10T06:00:45.853Z,66.52
2023-05-10T06:01:45.963Z,65.77
2023-05-10T06:02:46.133Z,64.47
2023-05-10T06:03:45.979Z,60.24
2023-05-10T06:04:45.928Z,53.99
2023-05-10T06:05:46.005Z,50.51
2023-05-10T06:06:45.968Z,50.43
2023-05-10T06:07:45.972Z,48.06
2023-05-10T06:08:46.017Z,40.74
2023-05-10T06:09:46.042Z,37.37
2023-05-10T06:10:46.097Z,39.64
2023-05-10T06:11:46.101Z,42.70
2023-05-10T06:12:46.111Z,40.65
2023-05-10T06:13:46.223Z,37.79
2023-05-10T06:14:46.176Z,42.63
2023-05-10T06:15:46.161Z,43.97
2023-05-10T06:16:46.276Z,52.16
2023-05-10T06:17:46.288Z,64.74
2023-05-10T06:18:46.190Z,73.47
2023-05-10T06:19:46.196Z,87.86
2023-05-10T06:20:46.271Z,106.89
2023-05-10T06:21:46.207Z,118.16
2023-05-10T06:22:46.254Z,133.39
2023-05-10T06:23:46.212Z,141.17
2023-05-10T06:24:46.242Z,144.89
2023-05-10T06:25:46.262Z,154.12
2023-05-10T06:26:46.251Z,161.80
2023-05-10T06:27:49.794Z,166.75
2023-05-10T06:28:47.318Z,167.15
2023-05-10T06:29:46.315Z,169.00
2023-05-10T06:30:46.377Z,174.29
2023-05-10T06:31:46.276Z,180.91
2023-05-10T06:32:46.348Z,192.07
2023-05-10T06:33:46.266Z,200.20
2023-05-10T06:34:46.256Z,196.66
2023-05-10T06:35:46.254Z,188.42
2023-05-10T06:36:46.367Z,190.04
2023-05-10T06:37:46.393Z,194.55
2023-05-10T06:38:46.481Z,189.02
2023-05-10T06:39:46.875Z,193.73
2023-05-10T06:40:46.571Z,202.73
2023-05-10T06:41:46.636Z,215.21
2023-05-10T06:42:46.707Z,211.70
2023-05-10T06:43:46.772Z,200.34
2023-05-10T06:44:46.881Z,194.62
2023-05-10T06:45:46.829Z,188.39
2023-05-10T06:46:46.909Z,186.13
2023-05-10T06:47:46.950Z,181.63
2023-05-10T06:48:46.913Z,184.09
2023-05-10T06:49:46.967Z,179.72
2023-05-10T06:50:46.953Z,182.95
2023-05-10T06:51:47.003Z,178.14
2023-05-10T06:52:47.051Z,178.55
2023-05-10T06:53:47.072Z,176.10
2023-05-10T06:54:47.147Z,176.96
2023-05-10T06:55:47.092Z,175.30
2023-05-10T06:56:47.106Z,176.57
2023-05-10T06:57:47.132Z,175.71
2023-05-10T06:58:47.223Z,168.63
2023-05-10T06:59:47.245Z,173.33
2023-05-10T07:00:47.253Z,177.35
2023-05-10T07:01:47.279Z,167.95
2023-05-10T07:02:47.284Z,166.89
2023-05-10T07:03:47.299Z,166.86
2023-05-10T07:04:47.422Z,164.31
2023-05-10T07:05:47.445Z,161.81
2023-05-10T07:06:47.535Z,265.73
2023-05-10T07:07:47.549Z,203.41
2023-05-10T07:08:47.633Z,179.54
2023-05-10T07:09:47.751Z,321.38
2023-05-10T07:10:47.747Z,207.71
2023-05-10T07:11:47.814Z,172.91
2023-05-10T07:12:48.019Z,159.83
2023-05-10T07:13:47.954Z,156.47
2023-05-10T07:14:48.386Z,157.72
2023-05-10T07:15:48.081Z,164.73
2023-05-10T07:16:48.134Z,164.36
2023-05-10T07:17:48.265Z,170.00
2023-05-10T07:18:48.277Z,169.82
2023-05-10T07:19:48.376Z,174.44
2023-05-10T07:20:48.467Z,173.78
2023-05-10T07:21:48.469Z,203.79
2023-05-10T07:22:48.504Z,188.73
2023-05-10T07:23:48.559Z,179.72
2023-05-10T07:24:48.633Z,177.47
2023-05-10T07:25:48.691Z,190.44
2023-05-10T07:26:48.754Z,215.47
2023-05-10T07:27:48.808Z,220.40
2023-05-10T07:28:48.863Z,196.89
2023-05-10T07:29:48.935Z,187.81
2023-05-10T07:30:49.048Z,184.03
2023-05-10T07:31:49.520Z,191.95
2023-05-10T07:32:49.094Z,187.33
2023-05-10T07:33:49.140Z,184.94
2023-05-10T07:34:49.367Z,187.84
2023-05-10T07:35:49.248Z,188.31
2023-05-10T07:36:49.321Z,181.36
2023-05-10T07:37:49.334Z,187.86
2023-05-10T07:38:49.365Z,178.76
2023-05-10T07:39:49.421Z,166.22
2023-05-10T07:40:49.472Z,165.09
2023-05-10T07:41:49.522Z,168.85
2023-05-10T07:42:49.600Z,164.94
2023-05-10T07:43:49.623Z,158.52
2023-05-10T07:44:49.647Z,158.79
2023-05-10T07:45:49.709Z,157.66
2023-05-10T07:46:49.792Z,158.18
2023-05-10T07:47:49.828Z,158.23
2023-05-10T07:48:49.842Z,166.52
2023-05-10T07:49:50.883Z,166.60
2023-05-10T07:50:49.924Z,163.13
2023-05-10T07:51:49.971Z,172.99
2023-05-10T07:52:50.036Z,158.53
2023-05-10T07:53:50.056Z,155.40
2023-05-10T07:54:50.391Z,153.50
2023-05-10T07:55:50.147Z,154.31
2023-05-10T07:56:50.227Z,151.36
2023-05-10T07:57:50.216Z,147.10
2023-05-10T07:58:50.252Z,148.20
2023-05-10T07:59:50.384Z,146.12
2023-05-10T08:00:50.339Z,142.99
2023-05-10T08:01:50.376Z,141.37
2023-05-10T08:02:50.528Z,140.55
2023-05-10T08:03:50.505Z,140.01
2023-05-10T08:04:50.527Z,142.42
2023-05-10T08:05:50.558Z,142.13
2023-05-10T08:06:50.633Z,146.13
2023-05-10T08:07:50.676Z,142.60
2023-05-10T08:08:50.704Z,143.17
2023-05-10T08:09:50.745Z,136.43
2023-05-10T08:10:50.761Z,136.92
2023-05-10T08:11:50.813Z,134.99
2023-05-10T08:12:50.846Z,131.03
2023-05-10T08:13:50.885Z,135.49
2023-05-10T08:14:50.942Z,133.47
2023-05-10T08:15:51.064Z,132.48
2023-05-10T08:16:51.029Z,130.76
2023-05-10T08:17:51.111Z,140.08
2023-05-10T08:18:51.193Z,144.87
2023-05-10T08:19:51.188Z,137.74
2023-05-10T08:20:51.201Z,143.21
2023-05-10T08:21:51.244Z,140.67
2023-05-10T08:22:52.009Z,136.24
2023-05-10T08:23:51.321Z,131.22
2023-05-10T08:24:51.396Z,126.10
2023-05-10T08:25:51.400Z,124.30
2023-05-10T08:26:51.448Z,120.51
2023-05-10T08:27:51.520Z,122.09
2023-05-10T08:28:51.501Z,121.65
2023-05-10T08:29:51.524Z,124.05
2023-05-10T08:30:51.562Z,130.73
2023-05-10T08:31:51.638Z,137.65
2023-05-10T08:32:51.704Z,135.19
2023-05-10T08:33:51.664Z,143.29
2023-05-10T08:34:51.709Z,141.51
2023-05-10T08:35:51.711Z,145.51
2023-05-10T08:36:51.745Z,143.22
2023-05-10T08:37:51.818Z,151.42
2023-05-10T08:38:52.249Z,155.16
2023-05-10T08:39:51.851Z,150.31
2023-05-10T08:40:51.953Z,146.89
2023-05-10T08:41:51.896Z,145.35
2023-05-10T08:42:51.883Z,137.73
2023-05-10T08:43:51.977Z,133.63
2023-05-10T08:44:51.965Z,133.47
2023-05-10T08:45:52.404Z,146.25
2023-05-10T08:46:52.056Z,153.00
2023-05-10T08:47:52.081Z,161.13
2023-05-10T08:48:52.042Z,166.64
2023-05-10T08:49:52.528Z,171.21
2023-05-10T08:50:52.100Z,178.97
2023-05-10T08:51:52.113Z,184.63
2023-05-10T08:52:52.107Z,185.49
2023-05-10T08:53:52.139Z,188.51
2023-05-10T08:54:52.176Z,200.82
2023-05-10T08:55:52.109Z,204.67
2023-05-10T08:56:52.891Z,203.31
2023-05-10T08:57:52.135Z,206.19
2023-05-10T08:58:52.186Z,208.94
2023-05-10T08:59:52.116Z,208.76
2023-05-10T09:00:52.188Z,216.14
2023-05-10T09:01:52.113Z,220.96
2023-05-10T09:02:52.174Z,223.90
2023-05-10T09:03:52.169Z,226.52
2023-05-10T09:04:52.260Z,229.00
2023-05-10T09:05:52.129Z,229.75
2023-05-10T09:06:52.124Z,233.64
2023-05-10T09:07:52.152Z,242.42
2023-05-10T09:08:52.168Z,249.18
2023-05-10T09:09:52.201Z,248.83
2023-05-10T09:10:52.256Z,248.12
2023-05-10T09:11:52.277Z,248.92
2023-05-10T09:12:52.381Z,249.44
2023-05-10T09:13:52.423Z,248.82
2023-05-10T09:14:52.518Z,249.25
2023-05-10T09:15:52.558Z,249.47
2023-05-10T09:16:52.547Z,248.14
2023-05-10T09:17:52.654Z,245.91
2023-05-10T09:18:52.691Z,246.35
2023-05-10T09:19:52.650Z,250.27
2023-05-10T09:20:52.744Z,246.61
2023-05-10T09:21:52.727Z,248.26
2023-05-10T09:22:52.795Z,242.79
2023-05-10T09:23:52.814Z,243.38
2023-05-10T09:24:52.864Z,238.06
2023-05-10T09:25:52.864Z,236.77
2023-05-10T09:26:52.859Z,238.94
2023-05-10T09:27:52.834Z,241.81
2023-05-10T09:29:17.933Z,25.00
2023-05-10T09:30:17.246Z,25.00
2023-05-10T09:31:17.285Z,25.00
2023-05-10T09:32:17.924Z,25.00
2023-05-10T09:33:17.324Z,25.00
2023-05-10T09:34:17.973Z,29.33
2023-05-10T09:35:17.475Z,23.62
2023-05-10T09:36:17.214Z,25.00
2023-05-10T09:37:17.182Z,37.05
2023-05-10T09:38:17.168Z,43.90
2023-05-10T09:39:17.156Z,50.19
2023-05-10T09:40:17.196Z,47.93
2023-05-10T09:41:17.191Z,51.29
2023-05-10T09:42:17.139Z,51.00
2023-05-10T09:43:17.120Z,53.70
2023-05-10T09:44:17.148Z,58.72
2023-05-10T09:45:17.322Z,60.11
2023-05-10T09:46:17.133Z,57.91
2023-05-10T09:47:17.142Z,58.44
2023-05-10T09:48:17.096Z,58.52
2023-05-10T09:49:17.100Z,60.93
2023-05-10T09:50:17.472Z,62.80
2023-05-10T09:51:17.093Z,62.79
2023-05-10T09:52:17.103Z,63.59
2023-05-10T09:53:17.070Z,62.08
2023-05-10T09:54:17.079Z,61.73
2023-05-10T09:55:17.268Z,58.15
2023-05-10T09:56:17.064Z,58.25
2023-05-10T09:57:17.046Z,59.67
2023-05-10T09:58:17.034Z,62.59
2023-05-10T09:59:17.016Z,59.42
2023-05-10T10:00:17.101Z,61.72
2023-05-10T10:01:17.058Z,61.31
2023-05-10T10:02:17.000Z,61.62
2023-05-10T10:03:17.025Z,62.05
2023-05-10T10:04:17.044Z,60.78
2023-05-10T10:05:17.172Z,61.35
2023-05-10T10:06:29.003Z,62.52
2023-05-10T10:07:17.989Z,62.66
2023-05-10T10:08:17.092Z,62.56
2023-05-10T10:09:16.985Z,62.20
2023-05-10T10:10:17.059Z,63.83
2023-05-10T10:11:17.445Z,63.39
2023-05-10T10:12:16.959Z,61.23
2023-05-10T10:13:16.961Z,62.11
2023-05-10T10:14:16.931Z,63.87
2023-05-10T10:15:17.101Z,63.87
2023-05-10T10:16:16.965Z,62.29
2023-05-10T10:17:16.930Z,63.84
2023-05-10T10:18:17.013Z,64.24
2023-05-10T10:19:16.919Z,64.56
2023-05-10T10:20:17.126Z,61.24
2023-05-10T10:21:17.030Z,57.15
2023-05-10T10:22:17.087Z,57.78
2023-05-10T10:23:17.762Z,55.27
2023-05-10T10:24:17.125Z,54.50
2023-05-10T10:25:17.402Z,54.68
2023-05-10T10:26:17.228Z,54.36
2023-05-10T10:27:17.234Z,56.82
2023-05-10T10:28:17.265Z,58.03
2023-05-10T10:29:17.308Z,59.09
2023-05-10T10:30:17.344Z,58.18
2023-05-10T10:31:17.504Z,57.14
2023-05-10T10:32:17.440Z,53.34
2023-05-10T10:33:27.890Z,50.80
2023-05-10T10:34:18.476Z,51.23
2023-05-10T10:35:17.739Z,51.28
2023-05-10T10:36:17.472Z,48.70
2023-05-10T10:37:17.502Z,47.36
2023-05-10T10:38:17.463Z,46.85
2023-05-10T10:39:17.454Z,46.14
2023-05-10T10:40:17.422Z,46.04
2023-05-10T10:41:17.451Z,48.31
2023-05-10T10:42:17.430Z,46.49
2023-05-10T10:43:17.409Z,44.75
2023-05-10T10:44:17.436Z,47.26
2023-05-10T10:45:17.739Z,46.09
2023-05-10T10:46:17.534Z,43.55
2023-05-10T10:47:17.561Z,45.44
2023-05-10T10:48:17.604Z,44.11
2023-05-10T10:49:17.639Z,39.98
2023-05-10T10:50:17.691Z,41.96
2023-05-10T10:51:17.761Z,42.97
2023-05-10T10:52:17.776Z,42.27
2023-05-10T10:53:17.862Z,40.43
2023-05-10T10:54:17.877Z,37.87
2023-05-10T10:55:18.183Z,35.91
2023-05-10T10:56:17.987Z,36.66
2023-05-10T10:57:17.994Z,35.16
2023-05-10T10:58:18.971Z,31.54
2023-05-10T10:59:18.090Z,31.80
2023-05-10T11:00:18.133Z,35.42
2023-05-10T11:01:18.278Z,37.01
2023-05-10T11:02:18.243Z,33.38
2023-05-10T11:03:18.356Z,30.48
2023-05-10T11:04:18.459Z,33.27
2023-05-10T11:05:18.525Z,35.15
2023-05-10T11:06:18.459Z,36.81
2023-05-10T11:07:18.521Z,33.05
2023-05-10T11:08:18.584Z,30.93
2023-05-10T11:09:18.629Z,35.53
2023-05-10T11:10:18.672Z,37.84
2023-05-10T11:11:18.753Z,37.22
2023-05-10T11:12:18.814Z,36.61
2023-05-10T11:13:18.818Z,41.39
2023-05-10T11:14:18.887Z,36.21
2023-05-10T11:15:18.963Z,42.83
2023-05-10T11:16:19.120Z,49.36
2023-05-10T11:17:18.978Z,52.29
2023-05-10T11:18:19.072Z,50.97
2023-05-10T11:19:19.085Z,51.91
2023-05-10T11:20:19.503Z,59.06
2023-05-10T11:21:19.248Z,63.53
2023-05-10T11:22:19.168Z,66.53
2023-05-10T11:23:19.231Z,66.15
2023-05-10T11:24:19.242Z,65.66
2023-05-10T11:25:19.351Z,64.84
2023-05-10T11:26:19.338Z,63.34
2023-05-10T11:27:19.366Z,61.93
2023-05-10T11:28:19.427Z,60.92
2023-05-10T11:29:19.435Z,61.88
2023-05-10T11:30:19.771Z,61.85
2023-05-10T11:31:19.592Z,61.16
2023-05-10T11:32:19.561Z,62.67
2023-05-10T11:33:19.621Z,62.21
2023-05-10T11:34:19.658Z,62.66
2023-05-10T11:35:19.729Z,63.24
2023-05-10T11:36:19.777Z,60.30
2023-05-10T11:37:19.786Z,62.01
2023-05-10T11:38:19.837Z,59.82
2023-05-10T11:39:19.897Z,59.24
2023-05-10T11:40:20.128Z,59.85
2023-05-10T11:41:19.978Z,59.92
2023-05-10T11:42:19.997Z,60.67
2023-05-10T11:43:20.036Z,56.75
2023-05-10T11:44:20.101Z,58.01
2023-05-10T11:45:20.124Z,59.32
2023-05-10T11:46:20.261Z,59.44
2023-05-10T11:47:20.231Z,58.55
2023-05-10T11:48:20.275Z,58.98
2023-05-10T11:49:20.305Z,57.51
2023-05-10T11:50:20.405Z,56.13
2023-05-10T11:51:20.395Z,54.79
2023-05-10T11:52:20.435Z,56.30
2023-05-10T11:53:20.497Z,56.16
2023-05-10T11:54:20.543Z,55.35
2023-05-10T11:55:20.620Z,55.81
2023-05-10T11:56:20.626Z,55.25
2023-05-10T11:57:20.678Z,55.12
2023-05-10T11:58:20.750Z,52.98
2023-05-10T11:59:20.785Z,53.70
2023-05-10T12:00:20.817Z,52.47
2023-05-10T12:01:20.878Z,54.82
2023-05-10T12:02:20.978Z,56.90
2023-05-10T12:03:21.022Z,58.44
2023-05-10T12:04:21.130Z,51.52
2023-05-10T12:05:21.072Z,53.28
2023-05-10T12:06:21.135Z,49.39
2023-05-10T12:07:21.183Z,50.74
2023-05-10T12:08:21.235Z,48.64
2023-05-10T12:09:35.420Z,49.58
2023-05-10T12:10:22.284Z,49.83
2023-05-10T12:11:21.290Z,49.73
2023-05-10T12:12:21.263Z,51.10
2023-05-10T12:13:21.252Z,52.28
2023-05-10T12:14:21.258Z,47.18
2023-05-10T12:15:21.252Z,48.06
2023-05-10T12:16:21.304Z,45.23
2023-05-10T12:17:21.227Z,43.12
2023-05-10T12:18:21.265Z,45.85
2023-05-10T12:19:21.268Z,46.40
2023-05-10T12:20:21.310Z,48.68
2023-05-10T12:21:21.385Z,43.10
2023-05-10T12:22:21.424Z,47.02
2023-05-10T12:23:21.477Z,45.25
2023-05-10T12:24:21.527Z,43.46
2023-05-10T12:25:21.597Z,43.04
2023-05-10T12:26:21.644Z,41.93
2023-05-10T12:27:21.704Z,43.50
2023-05-10T12:28:21.799Z,36.88
2023-05-10T12:29:21.810Z,35.40
2023-05-10T12:30:21.880Z,36.10
2023-05-10T12:31:21.979Z,38.48
2023-05-10T12:32:21.991Z,36.31
2023-05-10T12:33:22.041Z,38.35
2023-05-10T12:34:22.112Z,32.95
2023-05-10T12:35:22.178Z,35.36
2023-05-10T12:36:22.236Z,34.67
2023-05-10T12:37:22.294Z,33.14
2023-05-10T12:38:22.352Z,33.35
2023-05-10T12:39:22.414Z,35.49
2023-05-10T12:40:22.456Z,31.26
2023-05-10T12:41:22.560Z,32.29
2023-05-10T12:42:22.563Z,32.27
2023-05-10T12:43:22.639Z,28.92
2023-05-10T12:44:22.711Z,29.59
2023-05-10T12:45:22.739Z,31.94
2023-05-10T12:46:22.844Z,26.80
2023-05-10T12:47:22.848Z,27.01
2023-05-10T12:48:22.884Z,26.38
2023-05-10T12:49:22.981Z,28.62
2023-05-10T12:50:22.997Z,29.64
2023-05-10T12:51:23.119Z,28.63
2023-05-10T12:52:23.124Z,28.60
2023-05-10T12:53:23.174Z,30.49
2023-05-10T12:54:23.248Z,29.75
2023-05-10T12:55:23.291Z,29.69